createdAt,value
2017-07-20T00:01:28.131Z,70.20
2017-07-20T00:03:54.376Z,70.50
2017-07-20T00:06:20.640Z,70.30
2017-07-20T00:08:46.904Z,71.10
2017-07-20T00:11:13.156Z,70.00
2017-07-20T00:13:39.418Z,70.60
2017-07-20T00:17:35.912Z,71.10
2017-07-20T00:20:02.164Z,72.10
2017-07-20T00:22:28.393Z,72.90
2017-07-20T00:24:54.662Z,70.60
2017-07-20T00:27:22.366Z,71.40
2017-07-20T00:29:48.624Z,72.60
2017-07-20T00:32:14.910Z,71.50
2017-07-20T00:34:41.168Z,71.00
2017-07-20T00:37:07.438Z,70.70
2017-07-20T00:39:33.687Z,70.50
2017-07-20T00:41:59.913Z,70.40
2017-07-20T00:44:26.147Z,70.10
2017-07-20T00:46:52.411Z,72.10
2017-07-20T00:49:18.721Z,74.70
2017-07-20T00:51:44.984Z,76.60
2017-07-20T00:54:11.244Z,77.60
2017-07-20T00:56:37.487Z,81.20
2017-07-20T00:59:03.756Z,83.30
2017-07-20T01:01:30.042Z,85.60
2017-07-20T01:03:56.302Z,89.00
2017-07-20T01:06:22.548Z,90.40
2017-07-20T01:08:48.808Z,91.00
2017-07-20T01:11:16.249Z,90.60
2017-07-20T01:13:42.526Z,90.80
2017-07-20T01:17:35.595Z,91.30
2017-07-20T01:20:01.871Z,91.50
2017-07-20T01:22:28.117Z,91.10
2017-07-20T01:24:54.736Z,91.60
2017-07-20T01:27:20.984Z,91.90
2017-07-20T01:29:47.232Z,91.60
2017-07-20T01:32:13.519Z,91.90
2017-07-20T01:34:39.763Z,92.00
2017-07-20T01:37:06.021Z,92.20
2017-07-20T01:39:32.282Z,92.40
2017-07-20T01:41:58.559Z,93.00
2017-07-20T01:44:24.839Z,92.90
2017-07-20T01:46:51.112Z,92.90
2017-07-20T01:49:17.383Z,92.90
2017-07-20T01:51:43.669Z,93.00
2017-07-20T01:54:09.938Z,92.90
2017-07-20T01:56:36.241Z,92.80
2017-07-20T01:59:02.528Z,93.20
2017-07-20T02:01:28.822Z,92.90
2017-07-20T02:03:55.081Z,93.20
2017-07-20T02:06:21.348Z,93.10
2017-07-20T02:08:47.653Z,93.10
2017-07-20T02:11:13.920Z,93.00
2017-07-20T02:13:40.176Z,93.30
2017-07-20T02:17:35.347Z,93.60
2017-07-20T02:20:01.621Z,93.50
2017-07-20T02:22:28.608Z,93.70
2017-07-20T02:24:54.877Z,93.70
2017-07-20T02:27:21.155Z,93.60
2017-07-20T02:29:47.400Z,93.80
2017-07-20T02:32:13.688Z,93.70
2017-07-20T02:34:39.927Z,93.80
2017-07-20T02:37:06.183Z,93.70
2017-07-20T02:39:32.424Z,93.90
2017-07-20T02:41:58.677Z,93.90
2017-07-20T02:44:24.940Z,94.00
2017-07-20T02:46:51.192Z,94.10
2017-07-20T02:49:17.432Z,94.00
2017-07-20T02:51:43.729Z,93.80
2017-07-20T02:54:09.989Z,93.80
2017-07-20T02:56:36.260Z,93.90
2017-07-20T02:59:02.531Z,93.70
2017-07-20T03:01:28.825Z,93.50
2017-07-20T03:03:55.080Z,93.70
2017-07-20T03:06:21.335Z,93.80
2017-07-20T03:08:47.593Z,93.90
2017-07-20T03:11:13.884Z,94.00
2017-07-20T03:13:40.145Z,93.90
2017-07-20T03:17:36.001Z,94.00
2017-07-20T03:20:03.013Z,93.80
2017-07-20T03:22:45.680Z,93.50
2017-07-20T03:25:11.932Z,93.60
2017-07-20T03:27:38.204Z,93.30
2017-07-20T03:30:04.483Z,93.50
2017-07-20T03:32:30.732Z,93.60
2017-07-20T03:34:57.007Z,94.00
2017-07-20T03:37:23.256Z,93.70
2017-07-20T03:39:49.492Z,93.20
2017-07-20T03:42:15.764Z,93.70
2017-07-20T03:44:42.040Z,93.20
2017-07-20T03:47:08.304Z,93.00
2017-07-20T03:49:34.563Z,93.40
2017-07-20T03:52:00.797Z,92.80
2017-07-20T03:54:27.060Z,93.50
2017-07-20T03:56:53.327Z,93.40
2017-07-20T03:59:19.618Z,93.40
2017-07-20T04:01:45.873Z,93.50
2017-07-20T04:04:12.124Z,93.60
2017-07-20T04:06:38.392Z,93.60
2017-07-20T04:09:04.645Z,93.50
2017-07-20T04:11:30.934Z,94.10
2017-07-20T04:13:57.192Z,93.40
2017-07-20T04:17:36.468Z,93.60
2017-07-20T04:20:02.760Z,93.70
2017-07-20T04:22:29.015Z,93.50
2017-07-20T04:24:55.357Z,93.10
2017-07-20T04:27:21.610Z,92.80
2017-07-20T04:29:47.900Z,93.50
2017-07-20T04:32:14.144Z,93.40
2017-07-20T04:34:40.409Z,93.50
2017-07-20T04:37:06.640Z,93.70
2017-07-20T04:39:32.896Z,93.70
2017-07-20T04:41:59.189Z,93.10
2017-07-20T04:44:25.434Z,92.50
2017-07-20T04:46:51.713Z,92.90
2017-07-20T04:49:17.977Z,92.90
2017-07-20T04:51:44.236Z,92.90
2017-07-20T04:54:10.515Z,93.00
2017-07-20T04:56:36.800Z,92.90
2017-07-20T04:59:03.070Z,93.00
2017-07-20T05:01:29.342Z,93.30
2017-07-20T05:03:55.618Z,92.00
2017-07-20T05:06:21.938Z,93.10
2017-07-20T05:08:48.201Z,92.50
2017-07-20T05:11:14.459Z,92.90
2017-07-20T05:13:40.724Z,93.40
2017-07-20T05:17:35.569Z,93.30
2017-07-20T05:20:01.874Z,93.40
2017-07-20T05:22:28.117Z,93.30
2017-07-20T05:24:55.111Z,93.30
2017-07-20T05:27:21.392Z,93.10
2017-07-20T05:29:47.660Z,92.70
2017-07-20T05:32:13.901Z,92.80
2017-07-20T05:34:40.132Z,93.40
2017-07-20T05:37:06.393Z,93.00
2017-07-20T05:39:32.664Z,92.90
2017-07-20T05:41:58.933Z,93.00
2017-07-20T05:44:25.204Z,92.60
2017-07-20T05:46:58.247Z,92.90
2017-07-20T05:49:24.488Z,93.10
2017-07-20T05:51:50.747Z,92.90
2017-07-20T05:54:17.020Z,92.60
2017-07-20T05:56:43.276Z,92.90
2017-07-20T05:59:09.504Z,92.80
2017-07-20T06:01:35.756Z,92.60
2017-07-20T06:04:01.991Z,92.80
2017-07-20T06:06:28.244Z,92.80
2017-07-20T06:08:54.490Z,93.20
2017-07-20T06:11:20.713Z,92.70
2017-07-20T06:13:46.944Z,93.00
2017-07-20T06:17:35.420Z,93.00
2017-07-20T06:20:01.696Z,92.60
2017-07-20T06:22:27.939Z,92.50
2017-07-20T06:24:54.184Z,92.70
2017-07-20T06:27:20.448Z,93.50
2017-07-20T06:29:47.337Z,93.30
2017-07-20T06:32:13.592Z,93.60
2017-07-20T06:34:39.824Z,93.20
2017-07-20T06:37:06.045Z,93.00
2017-07-20T06:39:32.269Z,92.90
2017-07-20T06:41:58.502Z,92.30
2017-07-20T06:44:24.739Z,90.10
2017-07-20T06:46:50.961Z,90.50
2017-07-20T06:49:17.193Z,91.80
2017-07-20T06:54:23.877Z,91.50
2017-07-20T06:56:50.155Z,90.20
2017-07-20T06:59:16.442Z,90.90
2017-07-20T07:01:42.774Z,90.20
2017-07-20T07:04:09.046Z,89.10
2017-07-20T07:06:35.276Z,87.70
2017-07-20T07:09:01.631Z,90.00
2017-07-20T07:11:27.871Z,90.30
2017-07-20T07:13:54.100Z,90.70
2017-07-20T07:17:35.509Z,90.50
2017-07-20T07:20:01.960Z,90.30
2017-07-20T07:22:28.250Z,90.50
2017-07-20T07:24:54.483Z,90.00
2017-07-20T07:27:20.715Z,89.30
2017-07-20T07:29:46.953Z,90.00
2017-07-20T07:32:13.580Z,90.30
2017-07-20T07:34:39.898Z,90.70
2017-07-20T07:37:06.272Z,89.50
2017-07-20T07:39:32.510Z,90.50
2017-07-20T07:41:58.739Z,89.00
2017-07-20T07:44:24.968Z,85.90
2017-07-20T07:46:51.212Z,84.00
2017-07-20T07:49:17.440Z,80.90
2017-07-20T07:51:43.673Z,74.40
2017-07-20T07:54:09.920Z,76.50
2017-07-20T07:56:36.158Z,74.30
2017-07-20T07:59:02.408Z,70.60
2017-07-20T08:01:28.674Z,68.00
2017-07-20T08:03:54.932Z,72.00
2017-07-20T08:06:21.218Z,69.90
2017-07-20T08:08:47.513Z,68.40
2017-07-20T08:11:13.844Z,65.30
2017-07-20T08:13:40.804Z,67.80
2017-07-20T08:17:36.296Z,69.70
2017-07-20T08:20:02.555Z,67.60
2017-07-20T08:22:28.994Z,68.40
2017-07-20T08:24:55.236Z,68.60
2017-07-20T08:27:21.479Z,70.40
2017-07-20T08:29:47.723Z,71.70
2017-07-20T08:32:13.963Z,72.70
2017-07-20T08:34:40.265Z,72.20
2017-07-20T08:37:06.572Z,72.20
2017-07-20T08:39:32.814Z,71.10
2017-07-20T08:41:59.188Z,71.70
2017-07-20T08:44:25.452Z,73.20
2017-07-20T08:46:51.849Z,74.30
2017-07-20T08:49:18.231Z,71.30
2017-07-20T08:51:44.644Z,68.30
2017-07-20T08:54:10.880Z,69.90
2017-07-20T08:56:37.207Z,69.40
2017-07-20T08:59:03.441Z,70.30
2017-07-20T09:01:29.753Z,71.60
2017-07-20T09:03:56.043Z,72.30
2017-07-20T09:06:22.300Z,69.00
2017-07-20T09:08:48.561Z,68.30
2017-07-20T09:11:14.898Z,67.90
2017-07-20T09:13:41.153Z,67.00
2017-07-20T09:17:35.639Z,68.00
2017-07-20T09:20:01.920Z,67.80
2017-07-20T09:22:28.168Z,63.00
2017-07-20T09:24:54.419Z,61.50
2017-07-20T09:27:20.671Z,64.00
2017-07-20T09:29:46.934Z,66.70
2017-07-20T09:32:13.201Z,67.40
2017-07-20T09:34:39.443Z,68.30
2017-07-20T09:37:05.690Z,67.90
2017-07-20T09:39:31.958Z,65.50
2017-07-20T09:41:58.188Z,63.10
2017-07-20T09:44:24.448Z,64.10
2017-07-20T09:46:50.693Z,61.30
2017-07-20T09:49:17.621Z,64.30
2017-07-20T09:51:43.870Z,58.50
2017-07-20T09:54:10.105Z,60.30
2017-07-20T09:56:36.390Z,59.10
2017-07-20T09:59:02.639Z,59.60
2017-07-20T10:01:28.884Z,57.00
2017-07-20T10:03:55.108Z,56.30
2017-07-20T10:06:21.352Z,57.30
2017-07-20T10:08:47.592Z,56.60
2017-07-20T10:11:13.824Z,56.90
2017-07-20T10:13:40.047Z,57.40
2017-07-20T10:17:36.058Z,56.70
2017-07-20T10:20:02.345Z,56.50
2017-07-20T10:22:28.608Z,54.70
2017-07-20T10:24:54.848Z,53.60
2017-07-20T10:27:21.077Z,57.60
2017-07-20T10:29:47.330Z,53.10
2017-07-20T10:32:13.585Z,53.20
2017-07-20T10:34:39.860Z,53.30
2017-07-20T10:37:06.122Z,55.60
2017-07-20T10:39:32.365Z,55.50
2017-07-20T10:41:58.593Z,51.40
2017-07-20T10:44:25.220Z,53.40
2017-07-20T10:46:51.484Z,52.30
2017-07-20T10:49:17.715Z,49.20
2017-07-20T10:51:43.952Z,49.80
2017-07-20T10:54:10.200Z,47.50
2017-07-20T10:56:36.431Z,49.60
2017-07-20T10:59:02.688Z,50.60
2017-07-20T11:01:28.928Z,52.80
2017-07-20T11:03:55.168Z,55.50
2017-07-20T11:06:21.450Z,57.10
2017-07-20T11:08:47.712Z,59.30
2017-07-20T11:11:13.977Z,59.90
2017-07-20T11:13:40.240Z,58.70
2017-07-20T11:17:36.499Z,60.40
2017-07-20T11:20:03.169Z,59.10
2017-07-20T11:22:36.265Z,60.90
2017-07-20T11:25:02.501Z,61.10
2017-07-20T11:27:31.721Z,60.10
2017-07-20T11:29:57.950Z,60.70
2017-07-20T11:32:24.196Z,58.60
2017-07-20T11:34:50.433Z,57.90
2017-07-20T11:37:16.703Z,57.80
2017-07-20T11:39:42.935Z,57.90
2017-07-20T11:42:09.175Z,56.00
2017-07-20T11:44:35.453Z,56.20
2017-07-20T11:47:01.697Z,54.30
2017-07-20T11:49:27.936Z,53.50
2017-07-20T11:51:54.168Z,54.40
2017-07-20T11:54:20.411Z,53.00
2017-07-20T11:56:46.680Z,53.60
2017-07-20T11:59:12.953Z,55.50
2017-07-20T12:01:39.202Z,54.10
2017-07-20T12:04:05.466Z,55.30
2017-07-20T12:06:31.700Z,52.60
2017-07-20T12:08:58.001Z,52.30
2017-07-20T12:11:24.237Z,51.90
2017-07-20T12:13:50.524Z,51.80
2017-07-20T12:17:35.628Z,50.10
2017-07-20T12:20:01.912Z,52.30
2017-07-20T12:22:28.147Z,49.70
2017-07-20T12:24:54.383Z,50.00
2017-07-20T12:27:20.639Z,52.10
2017-07-20T12:29:47.412Z,53.00
2017-07-20T12:32:13.668Z,46.90
2017-07-20T12:34:39.911Z,46.00
2017-07-20T12:37:06.140Z,45.90
2017-07-20T12:39:32.390Z,49.30
2017-07-20T12:41:58.652Z,49.10
2017-07-20T12:44:24.925Z,47.70
2017-07-20T12:46:51.210Z,48.20
2017-07-20T12:49:17.467Z,49.00
2017-07-20T12:51:43.707Z,47.70
2017-07-20T12:54:09.941Z,47.10
2017-07-20T12:56:36.201Z,49.60
2017-07-20T12:59:02.445Z,49.70
2017-07-20T13:01:28.709Z,47.10
2017-07-20T13:03:54.964Z,44.30
2017-07-20T13:06:21.229Z,41.80
2017-07-20T13:08:47.503Z,43.40
2017-07-20T13:11:13.734Z,45.50
2017-07-20T13:13:39.976Z,46.50
2017-07-20T13:17:35.278Z,45.30
2017-07-20T13:20:01.568Z,45.20
2017-07-20T13:22:27.855Z,43.00
2017-07-20T13:24:54.085Z,44.50
2017-07-20T13:27:20.336Z,44.60
2017-07-20T13:29:46.581Z,44.20
2017-07-20T13:32:12.845Z,46.80
2017-07-20T13:34:39.107Z,44.80
2017-07-20T13:37:05.342Z,44.70
2017-07-20T13:39:31.588Z,42.70
2017-07-20T13:41:57.860Z,40.70
2017-07-20T13:44:24.100Z,43.00
2017-07-20T13:46:50.352Z,41.00
2017-07-20T13:49:16.585Z,38.10
2017-07-20T13:51:42.813Z,39.10
2017-07-20T13:54:09.056Z,38.60
2017-07-20T13:56:35.328Z,39.60
2017-07-20T13:59:02.264Z,39.50
2017-07-20T14:01:28.525Z,39.50
2017-07-20T14:03:55.154Z,38.50
2017-07-20T14:06:21.387Z,39.10
2017-07-20T14:08:47.626Z,38.80
2017-07-20T14:11:13.902Z,39.60
2017-07-20T14:13:40.365Z,39.80
2017-07-20T14:17:36.077Z,39.60
2017-07-20T14:20:02.319Z,40.80
2017-07-20T14:22:28.573Z,41.40
2017-07-20T14:24:54.851Z,41.60
2017-07-20T14:27:21.107Z,42.00
2017-07-20T14:29:47.343Z,41.90
2017-07-20T14:32:13.577Z,42.40
2017-07-20T14:34:39.820Z,43.20
2017-07-20T14:37:06.077Z,43.20
2017-07-20T14:39:32.332Z,44.20
2017-07-20T14:41:58.586Z,43.90
2017-07-20T14:44:24.811Z,44.90
2017-07-20T14:46:51.048Z,45.10
2017-07-20T14:49:17.319Z,45.50
2017-07-20T14:51:43.559Z,45.80
2017-07-20T14:54:09.841Z,46.60
2017-07-20T14:56:36.080Z,46.60
2017-07-20T14:59:02.320Z,47.00
2017-07-20T15:01:28.674Z,47.40
2017-07-20T15:03:54.917Z,47.00
2017-07-20T15:06:21.182Z,48.00
2017-07-20T15:08:47.434Z,46.90
2017-07-20T15:11:13.698Z,43.40
2017-07-20T15:13:40.012Z,44.10
2017-07-20T15:17:35.640Z,45.30
2017-07-20T15:20:01.892Z,46.30
2017-07-20T15:22:28.136Z,45.90
2017-07-20T15:24:54.454Z,43.50
2017-07-20T15:27:20.676Z,45.70
2017-07-20T15:29:46.913Z,46.20
2017-07-20T15:32:13.164Z,50.10
2017-07-20T15:34:39.401Z,56.80
2017-07-20T15:37:05.640Z,60.90
2017-07-20T15:39:32.332Z,61.90
2017-07-20T15:41:58.590Z,63.10
2017-07-20T15:44:24.840Z,63.90
2017-07-20T15:46:51.092Z,65.10
2017-07-20T15:49:17.357Z,69.70
2017-07-20T15:51:43.584Z,70.40
2017-07-20T15:54:09.835Z,71.40
2017-07-20T15:56:36.068Z,74.40
2017-07-20T15:59:02.336Z,73.90
2017-07-20T16:01:28.601Z,75.30
2017-07-20T16:03:54.856Z,75.00
2017-07-20T16:06:21.129Z,76.20
2017-07-20T16:08:47.364Z,76.30
2017-07-20T16:11:13.602Z,77.50
2017-07-20T16:13:39.861Z,77.30
2017-07-20T16:17:35.345Z,78.30
2017-07-20T16:20:01.613Z,76.70
2017-07-20T16:22:27.857Z,79.10
2017-07-20T16:24:54.095Z,73.60
2017-07-20T16:27:20.335Z,70.30
2017-07-20T16:29:46.594Z,72.20
2017-07-20T16:32:12.868Z,75.00
2017-07-20T16:34:39.106Z,75.00
2017-07-20T16:37:05.344Z,75.60
2017-07-20T16:39:31.590Z,77.40
2017-07-20T16:41:57.819Z,78.50
2017-07-20T16:44:24.081Z,78.50
2017-07-20T16:46:50.326Z,77.10
2017-07-20T16:49:16.576Z,77.50
2017-07-20T16:51:42.827Z,78.10
2017-07-20T16:54:09.083Z,77.60
2017-07-20T16:56:35.341Z,76.40
2017-07-20T16:59:01.642Z,76.60
2017-07-20T17:01:27.892Z,76.40
2017-07-20T17:03:54.131Z,74.30
2017-07-20T17:06:20.376Z,73.60
2017-07-20T17:08:46.669Z,72.40
2017-07-20T17:11:12.935Z,71.20
2017-07-20T17:13:39.181Z,68.90
2017-07-20T17:17:35.981Z,70.50
2017-07-20T17:20:02.986Z,67.40
2017-07-20T17:22:29.260Z,66.90
2017-07-20T17:24:56.246Z,66.60
2017-07-20T17:27:22.507Z,65.80
2017-07-20T17:29:48.785Z,64.00
2017-07-20T17:32:15.039Z,63.70
2017-07-20T17:34:41.308Z,62.40
2017-07-20T17:37:07.540Z,62.00
2017-07-20T17:39:33.801Z,61.70
2017-07-20T17:42:00.056Z,60.80
2017-07-20T17:44:26.716Z,61.40
2017-07-20T17:46:52.978Z,61.00
2017-07-20T17:49:19.224Z,60.50
2017-07-20T17:51:45.487Z,60.60
2017-07-20T17:54:11.777Z,60.40
2017-07-20T17:56:38.016Z,60.20
2017-07-20T17:59:04.462Z,59.80
2017-07-20T18:01:30.701Z,59.90
2017-07-20T18:03:57.212Z,59.70
2017-07-20T18:06:23.488Z,59.20
2017-07-20T18:08:49.773Z,59.40
2017-07-20T18:11:16.041Z,59.60
2017-07-20T18:13:42.305Z,58.70
2017-07-20T18:17:36.060Z,58.50
2017-07-20T18:20:02.308Z,58.60
2017-07-20T18:22:29.336Z,61.10
2017-07-20T18:24:55.619Z,60.30
2017-07-20T18:27:21.905Z,59.70
2017-07-20T18:29:48.924Z,59.50
2017-07-20T18:32:15.216Z,58.80
2017-07-20T18:34:41.500Z,59.20
2017-07-20T18:37:07.780Z,59.50
2017-07-20T18:39:34.021Z,59.20
2017-07-20T18:42:00.640Z,59.40
2017-07-20T18:44:26.896Z,59.80
2017-07-20T18:46:53.156Z,59.80
2017-07-20T18:49:19.415Z,60.10
2017-07-20T18:51:45.694Z,60.00
2017-07-20T18:54:11.942Z,60.00
2017-07-20T18:56:38.217Z,60.20
2017-07-20T18:59:04.525Z,60.30
2017-07-20T19:01:30.833Z,60.40
2017-07-20T19:03:57.088Z,60.00
2017-07-20T19:06:23.338Z,60.30
2017-07-20T19:08:49.605Z,60.90
2017-07-20T19:11:15.884Z,61.10
2017-07-20T19:13:42.164Z,61.50
2017-07-20T19:17:36.262Z,62.50
2017-07-20T19:20:03.297Z,63.60
2017-07-20T19:22:29.580Z,62.70
2017-07-20T19:24:55.854Z,63.50
2017-07-20T19:27:22.168Z,63.40
2017-07-20T19:29:48.464Z,64.00
2017-07-20T19:32:15.610Z,64.60
2017-07-20T19:34:41.875Z,64.40
2017-07-20T19:37:08.145Z,64.60
2017-07-20T19:39:34.406Z,65.40
2017-07-20T19:42:00.842Z,64.70
2017-07-20T19:44:27.101Z,65.30
2017-07-20T19:46:53.349Z,65.40
2017-07-20T19:49:19.605Z,66.00
2017-07-20T19:51:45.861Z,66.70
2017-07-20T19:54:12.132Z,65.80
2017-07-20T19:56:38.394Z,66.60
2017-07-20T19:59:04.679Z,66.70
2017-07-20T20:01:31.037Z,66.30
2017-07-20T20:03:57.363Z,67.30
2017-07-20T20:06:23.645Z,66.90
2017-07-20T20:08:49.925Z,68.00
2017-07-20T20:11:16.201Z,67.40
2017-07-20T20:13:42.477Z,67.50
2017-07-20T20:17:35.334Z,67.40
2017-07-20T20:20:02.031Z,67.10
2017-07-20T20:22:28.275Z,66.90
2017-07-20T20:24:54.540Z,67.30
2017-07-20T20:27:20.808Z,67.40
2017-07-20T20:29:47.061Z,67.40
2017-07-20T20:32:13.344Z,67.60
2017-07-20T20:34:39.593Z,67.30
2017-07-20T20:37:05.844Z,67.20
2017-07-20T20:39:32.107Z,67.20
2017-07-20T20:41:58.363Z,67.50
2017-07-20T20:44:24.667Z,66.40
2017-07-20T20:46:50.948Z,66.20
2017-07-20T20:49:17.196Z,66.40
2017-07-20T20:51:43.459Z,66.80
2017-07-20T20:54:09.716Z,66.70
2017-07-20T20:56:35.986Z,66.80
2017-07-20T20:59:02.259Z,65.20
2017-07-20T21:01:28.545Z,66.20
2017-07-20T21:03:54.796Z,66.70
2017-07-20T21:06:21.063Z,66.80
2017-07-20T21:08:47.341Z,66.90
2017-07-20T21:11:13.585Z,67.60
2017-07-20T21:13:39.838Z,67.30
2017-07-20T21:17:36.279Z,67.80
2017-07-20T21:20:02.556Z,68.70
2017-07-20T21:22:28.804Z,67.80
2017-07-20T21:24:55.043Z,68.20
2017-07-20T21:27:21.286Z,68.70
2017-07-20T21:29:47.622Z,68.50
2017-07-20T21:32:13.883Z,68.90
2017-07-20T21:34:40.137Z,68.80
2017-07-20T21:37:06.378Z,69.20
2017-07-20T21:39:32.630Z,69.10
2017-07-20T21:41:58.872Z,69.10
2017-07-20T21:44:25.139Z,68.60
2017-07-20T21:46:51.376Z,69.20
2017-07-20T21:49:17.631Z,69.70
2017-07-20T21:51:43.880Z,69.30
2017-07-20T21:54:10.108Z,69.10
2017-07-20T21:56:36.376Z,68.90
2017-07-20T21:59:02.626Z,69.00
2017-07-20T22:01:28.856Z,69.10
2017-07-20T22:03:55.076Z,69.50
2017-07-20T22:06:21.308Z,69.10
2017-07-20T22:08:47.570Z,70.20
2017-07-20T22:11:13.821Z,68.80
2017-07-20T22:13:40.068Z,68.90
2017-07-20T22:17:35.708Z,68.60
2017-07-20T22:20:01.945Z,69.00
2017-07-20T22:22:28.205Z,68.80
2017-07-20T22:24:54.435Z,68.80
2017-07-20T22:27:20.676Z,68.60
2017-07-20T22:29:46.913Z,68.30
2017-07-20T22:32:13.137Z,68.60
2017-07-20T22:34:39.434Z,69.90
2017-07-20T22:37:05.672Z,70.40
2017-07-20T22:39:31.911Z,70.00
2017-07-20T22:41:58.137Z,69.10
2017-07-20T22:44:24.372Z,70.60
2017-07-20T22:46:50.632Z,71.10
2017-07-20T22:49:16.868Z,70.10
2017-07-20T22:51:43.120Z,69.70
2017-07-20T22:54:09.355Z,69.70
2017-07-20T22:56:35.579Z,68.60
2017-07-20T22:59:01.851Z,68.20
2017-07-20T23:01:28.108Z,68.00
2017-07-20T23:04:05.235Z,67.40
2017-07-20T23:06:31.468Z,66.40
2017-07-20T23:08:57.703Z,66.40
2017-07-20T23:11:23.943Z,65.50
2017-07-20T23:13:50.181Z,65.80
2017-07-20T23:17:35.447Z,65.80
2017-07-20T23:20:01.687Z,65.10
2017-07-20T23:22:28.485Z,64.50
2017-07-20T23:24:54.724Z,64.90
2017-07-20T23:27:20.981Z,64.50
2017-07-20T23:29:47.240Z,64.20
2017-07-20T23:32:13.480Z,64.70
2017-07-20T23:34:39.724Z,63.20
2017-07-20T23:37:05.951Z,64.20
2017-07-20T23:39:32.260Z,63.40
2017-07-20T23:41:58.507Z,63.60
2017-07-20T23:44:24.739Z,63.20
2017-07-20T23:46:50.984Z,63.40
2017-07-20T23:49:17.222Z,63.00
2017-07-20T23:51:43.452Z,63.80
2017-07-20T23:54:09.723Z,63.90
2017-07-20T23:56:35.948Z,63.10
2017-07-20T23:59:02.339Z,63.60
